Disclaimer

Please do not use the information listed here in-flight or in-navigation, as they are not provided to us by the airports but are provided by volunteers, so they might be outdated.

Search


Regions


Airport information page

Radio informations:
Tower (TWR) - 118.2 MHz
METEO - 126.4 MHz
Approach (APP) - 118.2 MHz

Airport informations:
Latitude: 47° 52' 01.21" N
Longitude: 035° 18' 56.49" E
Elevation: 373 feet - 114 meters
Operating hours: N/A
Operating agency: Civil government, landing fees and diplomatic clearance may be required
Timezone: UTC+2(+3DT)
Fuel: N/A

Runway information:
02/20 - 8210 x 138 feet< - >2502 x 42 meters

Recent METARs:
UKDE 160630Z 04008MPS 360V060 9999 BKN016 M01/M06 Q1028 R02R/CLRD70 TEMPO 06010G15MPS
UKDE 160700Z 03008MPS 360V060 9999 BKN020 M01/M05 Q1028 R02R/CLRD70 TEMPO 06010G15MPS
UKDE 160730Z 03009G15MPS 9999 BKN015 M01/M05 Q1028 R02R/CLRD70 TEMPO 06010G15MPS

Airport on the map: